Time;durP1;ratioP1;P1;durP2;ratioP2;P2;SDS_P1;SDS_P2;PMS_P1;PMS_P2;Temp;Humidity;BMP_temperature;BMP_pressure;BME280_temperature;BME280_humidity;BME280_pressure;Samples;Min_cycle;Max_cycle;Signal;HPM_P1;HPM_P2
2020/12/27 00:00:48;;;;;;;15.27;9.02;;;;;;;4.03;95.99;99788.19;4950613;28;20054;-51
2020/12/27 00:03:15;;;;;;;14.60;9.18;;;;;;;4.08;95.29;99799.19;4951336;28;20050;-54
2020/12/27 00:05:43;;;;;;;16.15;9.48;;;;;;;4.05;95.69;99788.88;4953513;29;20047;-54
2020/12/27 00:08:11;;;;;;;16.25;9.75;;;;;;;4.02;95.33;99794.44;4952334;29;20055;-52
2020/12/27 00:10:40;;;;;;;15.52;9.73;;;;;;;4.00;96.02;99788.50;4946390;28;20055;-52
2020/12/27 00:13:06;;;;;;;15.98;10.05;;;;;;;4.03;95.84;99771.53;4952507;28;20152;-54
2020/12/27 00:15:34;;;;;;;15.85;9.43;;;;;;;3.96;95.47;99763.34;4953112;29;20046;-53
2020/12/27 00:18:01;;;;;;;15.73;8.98;;;;;;;3.99;96.17;99741.91;4951806;28;20063;-52
2020/12/27 00:20:28;;;;;;;17.70;9.00;;;;;;;3.99;95.33;99736.63;4946085;29;20058;-53
2020/12/27 00:22:54;;;;;;;20.15;10.23;;;;;;;3.96;95.74;99716.63;4949982;28;20317;-52
2020/12/27 00:25:22;;;;;;;19.95;11.93;;;;;;;3.86;96.17;99704.44;4950373;29;20325;-54
2020/12/27 00:27:49;;;;;;;15.60;9.07;;;;;;;3.85;95.88;99703.59;4949199;28;20049;-52
2020/12/27 00:30:16;;;;;;;17.27;11.02;;;;;;;3.79;96.57;99691.81;4934664;28;20436;-53
2020/12/27 00:32:43;;;;;;;15.32;9.55;;;;;;;3.85;96.14;99676.38;4952516;28;20036;-51
2020/12/27 00:35:10;;;;;;;15.70;10.13;;;;;;;3.75;96.41;99656.13;4952131;28;20054;-50
2020/12/27 00:37:37;;;;;;;14.75;9.32;;;;;;;3.71;96.87;99638.06;4948108;29;20297;-52
2020/12/27 00:40:04;;;;;;;16.50;8.50;;;;;;;3.74;95.97;99633.34;4943873;28;20115;-53
2020/12/27 00:42:32;;;;;;;15.13;8.38;;;;;;;3.73;96.12;99621.09;4951416;28;20066;-54
2020/12/27 00:44:59;;;;;;;20.17;8.73;;;;;;;3.76;96.73;99610.25;4950572;28;20035;-50
2020/12/27 00:47:28;;;;;;;17.63;9.02;;;;;;;3.74;96.71;99612.22;4951743;28;20047;-52
2020/12/27 00:49:55;;;;;;;15.18;9.27;;;;;;;3.71;95.99;99594.00;4950279;28;20046;-52
2020/12/27 00:52:22;;;;;;;12.90;8.13;;;;;;;3.82;96.98;99594.78;4950555;28;20122;-50
2020/12/27 00:54:49;;;;;;;12.32;7.53;;;;;;;3.79;96.43;99578.25;4951793;28;20047;-52
2020/12/27 00:57:16;;;;;;;11.38;7.25;;;;;;;3.77;96.44;99576.72;4951032;28;20063;-53
2020/12/27 00:59:44;;;;;;;14.07;8.05;;;;;;;3.76;96.22;99548.69;4948719;28;20051;-52
2020/12/27 01:02:11;;;;;;;13.38;7.90;;;;;;;3.79;96.13;99540.47;4951008;28;20435;-53
2020/12/27 01:04:38;;;;;;;17.58;8.57;;;;;;;3.70;96.79;99505.22;4949210;28;20341;-50
2020/12/27 01:07:05;;;;;;;13.35;8.05;;;;;;;3.79;96.92;99499.03;4952919;29;20447;-53
2020/12/27 01:09:32;;;;;;;9.98;7.43;;;;;;;3.77;96.59;99506.28;4952028;28;20069;-52
2020/12/27 01:11:59;;;;;;;13.90;7.53;;;;;;;3.79;96.71;99482.34;4949862;28;20051;-50
2020/12/27 01:14:25;;;;;;;14.40;8.15;;;;;;;3.76;96.88;99482.66;4952251;28;20347;-51
2020/12/27 01:16:53;;;;;;;12.27;7.47;;;;;;;3.83;97.04;99456.47;4951892;28;20335;-52
2020/12/27 01:19:20;;;;;;;13.15;7.32;;;;;;;3.79;96.82;99461.22;4951915;28;20466;-51
2020/12/27 01:21:47;;;;;;;14.73;8.73;;;;;;;3.86;96.77;99487.88;4950537;28;20061;-51
2020/12/27 01:24:15;;;;;;;11.45;6.78;;;;;;;3.87;96.25;99468.38;4953341;28;20047;-53
2020/12/27 01:26:42;;;;;;;11.90;7.25;;;;;;;3.87;96.39;99442.81;4952646;28;20054;-54
2020/12/27 01:29:08;;;;;;;10.10;7.28;;;;;;;3.92;96.37;99418.56;4956313;29;20176;-52
2020/12/27 01:31:35;;;;;;;11.23;6.55;;;;;;;4.00;95.91;99437.13;4950097;28;20090;-54
2020/12/27 01:34:03;;;;;;;21.02;7.70;;;;;;;3.97;95.96;99416.31;4955064;29;20047;-52
2020/12/27 01:36:31;;;;;;;12.60;6.72;;;;;;;4.02;96.05;99370.94;4953816;28;20043;-54
2020/12/27 01:38:58;;;;;;;15.10;7.32;;;;;;;3.97;95.89;99397.81;4955377;28;20042;-51
2020/12/27 01:41:25;;;;;;;10.88;6.63;;;;;;;4.05;95.42;99387.28;4950844;28;20442;-53
2020/12/27 01:44:05;;;;;;;10.45;6.18;;;;;;;4.00;95.67;99400.16;4955403;28;20047;-53
2020/12/27 01:46:33;;;;;;;9.95;5.70;;;;;;;4.06;95.57;99372.28;4954434;28;20054;-52
2020/12/27 01:49:00;;;;;;;8.73;5.70;;;;;;;4.03;95.35;99373.41;4953263;28;20447;-53
2020/12/27 01:51:28;;;;;;;8.07;5.88;;;;;;;3.99;95.38;99345.66;4951448;28;20051;-53
2020/12/27 01:53:55;;;;;;;13.63;6.10;;;;;;;4.00;95.94;99349.97;4955483;28;20043;-51
2020/12/27 01:56:27;;;;;;;9.27;5.78;;;;;;;4.02;95.87;99332.13;4951174;28;20050;-50
2020/12/27 01:58:59;;;;;;;9.27;4.80;;;;;;;4.02;95.88;99292.50;4955738;28;20106;-51
2020/12/27 02:01:25;;;;;;;8.82;5.50;;;;;;;3.99;96.13;99274.31;4949367;28;20039;-51
2020/12/27 02:03:52;;;;;;;8.13;5.32;;;;;;;4.03;96.06;99277.50;4955314;28;20323;-51
2020/12/27 02:06:20;;;;;;;8.95;5.50;;;;;;;4.01;95.78;99282.91;4954555;28;20379;-51
2020/12/27 02:08:50;;;;;;;8.18;5.43;;;;;;;4.03;95.75;99273.03;4955325;28;20094;-51
2020/12/27 02:11:20;;;;;;;7.70;5.55;;;;;;;4.03;95.57;99282.78;4951185;28;20032;-48
2020/12/27 02:13:50;;;;;;;9.88;6.18;;;;;;;4.08;95.80;99275.19;4955071;28;20047;-50
2020/12/27 02:16:19;;;;;;;10.07;6.00;;;;;;;4.09;96.09;99261.81;4943905;28;20408;-51
2020/12/27 02:18:47;;;;;;;8.63;5.00;;;;;;;4.13;95.32;99262.34;4955139;28;20054;-49
2020/12/27 02:21:14;;;;;;;7.70;4.90;;;;;;;4.11;95.40;99233.44;4948438;28;20146;-52
2020/12/27 02:23:41;;;;;;;8.18;5.10;;;;;;;4.07;95.54;99224.16;4954376;28;20467;-54
2020/12/27 02:26:09;;;;;;;7.22;4.05;;;;;;;4.16;95.82;99211.00;4951032;28;20043;-54
2020/12/27 02:28:36;;;;;;;8.35;5.07;;;;;;;4.13;96.00;99189.16;4954169;29;20467;-53
2020/12/27 02:31:03;;;;;;;7.88;5.72;;;;;;;4.14;96.28;99185.56;4950494;28;20051;-51
2020/12/27 02:33:30;;;;;;;7.47;5.70;;;;;;;4.15;96.11;99181.09;4954771;28;20047;-53
2020/12/27 02:36:06;;;;;;;;;;;;;;;4.17;95.76;99178.28;4954324;28;20047;-54
2020/12/27 02:38:33;;;;;;;7.72;4.68;;;;;;;4.15;95.87;99170.50;4954053;29;19933;-53
2020/12/27 02:41:00;;;;;;;6.50;4.40;;;;;;;4.11;96.40;99154.19;4949938;28;20047;-53
2020/12/27 02:43:27;;;;;;;7.95;4.72;;;;;;;4.14;95.88;99151.19;4954452;28;20055;-52
2020/12/27 02:45:54;;;;;;;7.90;4.35;;;;;;;4.19;95.64;99136.69;4954757;28;20051;-52
2020/12/27 02:48:21;;;;;;;6.80;4.18;;;;;;;4.24;95.94;99126.44;4952631;28;20047;-52
2020/12/27 02:50:48;;;;;;;7.72;4.65;;;;;;;4.18;95.58;99109.41;4952499;28;20046;-51
2020/12/27 02:53:15;;;;;;;7.13;4.15;;;;;;;4.22;95.94;99096.72;4954439;28;20404;-52
2020/12/27 02:55:42;;;;;;;6.75;4.10;;;;;;;4.24;95.81;99079.72;4953388;29;20043;-51
2020/12/27 02:58:09;;;;;;;4.45;3.40;;;;;;;4.26;96.17;99098.03;4952675;29;20062;-49
2020/12/27 03:00:36;;;;;;;6.50;4.25;;;;;;;4.34;95.29;99084.00;4952770;28;20143;-48
2020/12/27 03:03:03;;;;;;;7.43;4.15;;;;;;;4.39;95.72;99068.47;4952491;28;20047;-50
2020/12/27 03:05:30;;;;;;;5.93;3.83;;;;;;;4.48;95.08;99057.72;4952915;28;20200;-49
2020/12/27 03:07:57;;;;;;;7.63;4.10;;;;;;;4.57;94.28;99047.16;4952235;28;20126;-52
2020/12/27 03:10:24;;;;;;;5.15;3.35;;;;;;;4.56;94.86;99045.50;4947954;28;20035;-51
2020/12/27 03:12:51;;;;;;;6.03;3.40;;;;;;;4.60;94.44;99052.09;4952533;29;20324;-53
2020/12/27 03:15:17;;;;;;;5.18;3.47;;;;;;;4.57;94.15;99045.31;4952971;29;20324;-51
2020/12/27 03:17:45;;;;;;;6.00;3.20;;;;;;;4.57;94.06;99034.75;4952063;28;20055;-52
2020/12/27 03:20:16;;;;;;;4.32;3.00;;;;;;;4.54;94.23;99026.34;4948861;28;20062;-54
2020/12/27 03:22:44;;;;;;;5.20;3.35;;;;;;;4.55;94.33;98990.97;4953217;28;20039;-54
2020/12/27 03:25:12;;;;;;;4.00;2.85;;;;;;;4.57;94.08;99010.13;4951935;29;20047;-50
2020/12/27 03:27:39;;;;;;;4.20;2.72;;;;;;;4.60;93.98;98993.94;4949440;29;20459;-54
2020/12/27 03:30:06;;;;;;;6.35;2.90;;;;;;;4.64;93.37;98976.75;4949910;28;20459;-53
2020/12/27 03:32:33;;;;;;;5.25;2.42;;;;;;;4.69;93.42;98981.50;4951834;29;20459;-54
2020/12/27 03:35:01;;;;;;;4.30;2.85;;;;;;;4.65;93.73;98976.56;4952995;28;20039;-51
2020/12/27 03:37:28;;;;;;;3.33;2.38;;;;;;;4.68;93.41;98933.09;4953182;28;20163;-52
2020/12/27 03:39:55;;;;;;;5.10;2.40;;;;;;;4.69;93.53;98955.88;4950320;28;20439;-52
2020/12/27 03:42:23;;;;;;;3.40;2.53;;;;;;;4.64;93.49;98947.66;4952253;28;20051;-52
2020/12/27 03:44:50;;;;;;;3.20;2.70;;;;;;;4.63;93.44;98930.94;4952855;29;20094;-50
2020/12/27 03:47:17;;;;;;;5.00;2.35;;;;;;;4.72;93.59;98913.25;4952836;28;20051;-48
2020/12/27 03:49:44;;;;;;;3.92;2.80;;;;;;;4.64;93.85;98915.94;4953731;28;20102;-52
2020/12/27 03:52:12;;;;;;;3.22;2.33;;;;;;;4.61;94.11;98852.81;4951724;28;20059;-49
2020/12/27 03:54:39;;;;;;;3.70;2.33;;;;;;;4.58;94.46;98895.44;4949733;28;20063;-52
2020/12/27 03:57:06;;;;;;;5.00;2.90;;;;;;;4.55;94.82;98891.34;4949224;28;20054;-50
2020/12/27 03:59:35;;;;;;;5.28;2.50;;;;;;;4.56;95.02;98882.41;4953055;29;20055;-55
2020/12/27 04:02:02;;;;;;;2.88;2.22;;;;;;;4.60;94.66;98851.16;4948841;28;20119;-54
2020/12/27 04:04:28;;;;;;;4.32;2.20;;;;;;;4.63;94.62;98861.38;4953705;28;20415;-52
2020/12/27 04:07:03;;;;;;;3.88;2.40;;;;;;;4.61;94.98;98852.81;4951624;28;20098;-53
2020/12/27 04:09:31;;;;;;;3.97;2.85;;;;;;;4.62;94.88;98841.22;4952635;29;20070;-50
2020/12/27 04:11:58;;;;;;;3.88;2.20;;;;;;;4.59;94.54;98834.50;4951132;28;20074;-54
2020/12/27 04:14:25;;;;;;;2.95;2.05;;;;;;;4.67;94.36;98824.88;4952823;28;20051;-52
2020/12/27 04:16:52;;;;;;;2.97;2.20;;;;;;;4.63;94.80;98814.59;4953234;28;20046;-54
2020/12/27 04:19:19;;;;;;;2.30;2.00;;;;;;;4.68;94.36;98800.88;4953168;28;20324;-54
2020/12/27 04:21:46;;;;;;;2.67;1.92;;;;;;;4.70;94.16;98784.84;4951121;28;20047;-54
2020/12/27 04:24:13;;;;;;;4.07;2.00;;;;;;;4.73;94.61;98761.50;4952754;28;20046;-52
2020/12/27 04:26:41;;;;;;;2.25;1.75;;;;;;;4.73;94.54;98756.22;4950654;28;20062;-53
2020/12/27 04:29:08;;;;;;;3.47;1.88;;;;;;;4.83;94.05;98769.22;4952784;28;20054;-52
2020/12/27 04:31:34;;;;;;;3.47;2.00;;;;;;;4.74;94.61;98751.78;4949774;28;20063;-53
2020/12/27 04:34:01;;;;;;;2.67;1.80;;;;;;;4.69;94.77;98712.63;4952269;29;20047;-51
2020/12/27 04:36:28;;;;;;;2.08;1.77;;;;;;;4.61;95.49;98717.97;4952319;28;20050;-49
2020/12/27 04:38:56;;;;;;;3.03;1.85;;;;;;;4.49;96.34;98701.69;4952770;28;20062;-48
2020/12/27 04:41:23;;;;;;;2.72;2.45;;;;;;;4.44;97.10;98718.06;4947316;28;20058;-49
2020/12/27 04:43:51;;;;;;;2.25;1.80;;;;;;;4.51;97.27;98698.88;4953314;28;20054;-52
2020/12/27 04:46:18;;;;;;;2.58;1.80;;;;;;;4.42;97.62;98698.09;4953474;29;20047;-48
2020/12/27 04:48:46;;;;;;;3.65;2.22;;;;;;;4.42;98.04;98680.44;4953433;28;20047;-51
2020/12/27 04:51:15;;;;;;;5.57;2.47;;;;;;;4.39;98.90;98653.53;4950710;28;20097;-50
2020/12/27 04:53:42;;;;;;;2.05;1.85;;;;;;;4.38;99.11;98658.00;4953365;28;20051;-52
2020/12/27 04:56:08;;;;;;;5.65;2.50;;;;;;;4.36;99.29;98659.97;4951773;28;20039;-51
2020/12/27 04:58:35;;;;;;;3.22;2.20;;;;;;;4.31;99.94;98646.50;4952430;28;20050;-53
2020/12/27 05:01:03;;;;;;;4.88;2.10;;;;;;;4.33;99.75;98638.38;4954133;28;20133;-53
2020/12/27 05:03:30;;;;;;;2.85;1.85;;;;;;;4.32;100.00;98632.25;4952601;28;20074;-51
2020/12/27 05:05:57;;;;;;;3.60;2.17;;;;;;;4.31;100.00;98617.44;4955263;28;20114;-47
2020/12/27 05:08:24;;;;;;;2.45;2.00;;;;;;;4.30;100.00;98602.56;4956575;28;20424;-48
2020/12/27 05:10:53;;;;;;;2.28;1.77;;;;;;;4.27;100.00;98589.72;4954666;28;20055;-50
2020/12/27 05:13:20;;;;;;;3.58;1.50;;;;;;;4.30;100.00;98573.50;4956360;28;20055;-48
2020/12/27 05:15:47;;;;;;;2.05;1.50;;;;;;;4.34;100.00;98566.84;4957032;28;20043;-47
2020/12/27 05:18:15;;;;;;;1.55;1.35;;;;;;;4.26;100.00;98564.28;4954471;28;20059;-49
2020/12/27 05:20:42;;;;;;;2.95;1.48;;;;;;;4.23;100.00;98581.31;4953215;28;20078;-47
2020/12/27 05:23:11;;;;;;;1.63;1.17;;;;;;;4.29;100.00;98516.34;4957295;28;20051;-47
2020/12/27 05:25:39;;;;;;;1.77;1.42;;;;;;;4.29;100.00;98553.34;4952770;28;20340;-52
2020/12/27 05:28:07;;;;;;;2.85;1.52;;;;;;;4.25;100.00;98530.91;4955610;28;20043;-49
2020/12/27 05:30:34;;;;;;;3.72;1.25;;;;;;;4.29;100.00;98488.09;4952802;28;20039;-48
2020/12/27 05:33:01;;;;;;;1.75;1.38;;;;;;;4.28;100.00;98485.63;4954168;28;20036;-52
2020/12/27 05:35:29;;;;;;;2.42;1.45;;;;;;;4.28;100.00;98483.00;4956391;28;20051;-50
2020/12/27 05:38:02;;;;;;;3.58;1.17;;;;;;;4.29;100.00;98485.44;4956243;28;20438;-53
2020/12/27 05:40:34;;;;;;;3.03;1.88;;;;;;;4.29;100.00;98477.53;4955336;29;20050;-52
2020/12/27 05:43:06;;;;;;;1.73;1.38;;;;;;;4.29;100.00;98464.31;4954391;28;20057;-54
2020/12/27 05:45:35;;;;;;;3.00;1.50;;;;;;;4.37;100.00;98460.78;4956051;28;20047;-52
2020/12/27 05:48:02;;;;;;;1.67;1.30;;;;;;;4.38;100.00;98436.00;4955763;28;20050;-54
2020/12/27 05:50:30;;;;;;;2.47;1.80;;;;;;;4.40;100.00;98435.81;4954230;28;20055;-53
2020/12/27 05:52:59;;;;;;;1.42;1.33;;;;;;;4.37;100.00;98423.78;4955152;28;20051;-52
2020/12/27 05:55:28;;;;;;;4.03;2.20;;;;;;;4.38;100.00;98404.31;4955302;28;20339;-53
2020/12/27 05:57:55;;;;;;;1.83;1.60;;;;;;;4.40;100.00;98385.63;4954966;28;20440;-53
2020/12/27 06:00:23;;;;;;;2.08;1.58;;;;;;;4.47;100.00;98389.97;4954079;28;20047;-49
2020/12/27 06:02:58;;;;;;;2.22;1.52;;;;;;;4.44;100.00;98381.59;4955405;28;20150;-53
2020/12/27 06:06:09;;;;;;;1.23;1.10;;;;;;;4.48;100.00;98357.25;4955058;28;20150;-51
2020/12/27 06:09:07;;;;;;;2.03;1.30;;;;;;;4.51;100.00;98365.81;4944918;28;20047;-51
2020/12/27 06:11:48;;;;;;;1.83;1.73;;;;;;;4.53;100.00;98330.28;4934425;28;20051;-49
2020/12/27 06:14:41;;;;;;;1.52;1.00;;;;;;;4.55;100.00;98349.44;4955662;28;20043;-49
2020/12/27 06:17:13;;;;;;;2.53;1.30;;;;;;;4.56;100.00;98343.13;4951202;28;20463;-51
2020/12/27 06:19:54;;;;;;;1.63;1.17;;;;;;;4.59;100.00;98341.94;4952833;29;20043;-50
2020/12/27 06:22:26;;;;;;;1.45;1.20;;;;;;;4.54;100.00;98318.69;4955467;28;20058;-53
2020/12/27 06:24:57;;;;;;;1.48;1.05;;;;;;;4.61;100.00;98287.06;4955155;28;20274;-48
2020/12/27 06:27:26;;;;;;;2.00;1.20;;;;;;;4.60;100.00;98285.41;4952662;28;20609;-49
2020/12/27 06:29:57;;;;;;;3.38;1.45;;;;;;;4.59;100.00;98294.34;4950350;28;20051;-49
2020/12/27 06:32:26;;;;;;;1.63;0.95;;;;;;;4.67;100.00;98285.50;4954020;28;20055;-48
2020/12/27 06:34:53;;;;;;;1.60;1.33;;;;;;;4.69;100.00;98267.63;4954676;28;20054;-49
2020/12/27 06:37:20;;;;;;;2.40;1.05;;;;;;;4.67;100.00;98259.06;4954878;28;20047;-52
2020/12/27 06:39:47;;;;;;;1.98;1.35;;;;;;;4.63;100.00;98258.59;4954695;28;20051;-52
2020/12/27 06:42:16;;;;;;;1.92;1.05;;;;;;;4.67;100.00;98241.38;4951692;28;20201;-51
2020/12/27 06:44:44;;;;;;;1.98;1.30;;;;;;;4.72;100.00;98219.63;4953224;28;20050;-52
2020/12/27 06:47:13;;;;;;;2.47;1.45;;;;;;;4.69;100.00;98199.69;4955395;28;20125;-50
2020/12/27 06:49:40;;;;;;;1.55;1.30;;;;;;;4.70;100.00;98208.44;4951781;28;20047;-52
2020/12/27 06:52:19;;;;;;;1.77;1.35;;;;;;;4.69;100.00;98186.47;4953422;28;20047;-53
2020/12/27 06:54:47;;;;;;;1.45;1.20;;;;;;;4.70;100.00;98171.44;4954205;29;20042;-54
2020/12/27 06:57:44;;;;;;;1.05;0.93;;;;;;;4.68;100.00;98171.63;4951918;28;20047;-52
2020/12/27 07:00:20;;;;;;;2.45;1.20;;;;;;;4.67;100.00;98156.78;4952965;28;20051;-53
2020/12/27 07:02:47;;;;;;;;;;;;;;;4.63;100.00;98177.47;4953411;28;20043;-52
2020/12/27 07:05:28;;;;;;;2.72;1.10;;;;;;;4.67;100.00;98151.47;4949767;28;19922;-51
2020/12/27 07:07:55;;;;;;;2.40;1.42;;;;;;;4.74;100.00;98148.91;4953837;28;20047;-53
2020/12/27 07:10:23;;;;;;;1.30;1.10;;;;;;;4.76;100.00;98110.69;4950922;28;20058;-52
2020/12/27 07:12:51;;;;;;;1.73;1.00;;;;;;;4.77;100.00;98132.66;4954103;28;20051;-54
2020/12/27 07:15:19;;;;;;;2.95;1.65;;;;;;;4.77;100.00;98107.00;4953872;28;20057;-49
2020/12/27 07:17:47;;;;;;;2.85;1.00;;;;;;;4.78;100.00;98103.38;4953881;28;20351;-53
2020/12/27 07:20:15;;;;;;;2.33;1.30;;;;;;;4.74;100.00;98096.81;4954841;28;20423;-53
2020/12/27 07:22:43;;;;;;;1.80;1.25;;;;;;;4.80;100.00;98069.59;4953646;28;20262;-52
2020/12/27 07:25:13;;;;;;;1.23;1.13;;;;;;;4.86;100.00;98072.50;4951875;28;20122;-54
2020/12/27 07:27:41;;;;;;;2.05;1.30;;;;;;;4.81;100.00;98087.13;4951646;28;20066;-51
2020/12/27 07:30:10;;;;;;;2.10;1.17;;;;;;;4.80;100.00;98053.75;4953216;28;20051;-52
2020/12/27 07:32:40;;;;;;;1.52;1.25;;;;;;;4.81;100.00;98047.44;4952955;28;20062;-49
2020/12/27 07:35:09;;;;;;;1.50;1.30;;;;;;;4.85;100.00;98031.19;4952669;28;20127;-46
2020/12/27 07:37:37;;;;;;;1.80;1.33;;;;;;;4.85;100.00;98039.97;4953118;29;20048;-52
2020/12/27 07:40:05;;;;;;;1.10;1.00;;;;;;;4.89;100.00;98006.84;4950041;29;20039;-49
2020/12/27 07:42:32;;;;;;;1.50;1.20;;;;;;;4.90;99.95;97994.41;4952370;29;20431;-49
2020/12/27 07:45:03;;;;;;;2.15;1.50;;;;;;;4.88;100.00;97996.44;4952177;29;20051;-52
2020/12/27 07:47:36;;;;;;;1.88;1.23;;;;;;;4.87;100.00;97994.81;4953009;28;20054;-50
2020/12/27 07:50:06;;;;;;;1.65;1.25;;;;;;;4.97;99.73;97950.31;4948939;28;20054;-51
2020/12/27 07:52:52;;;;;;;1.73;1.08;;;;;;;4.97;100.00;97952.94;4952909;28;20051;-47
2020/12/27 07:55:28;;;;;;;1.60;1.00;;;;;;;4.99;99.82;97953.59;4950284;28;20058;-48
2020/12/27 07:57:56;;;;;;;1.58;1.10;;;;;;;4.95;99.18;97929.34;4953188;28;20420;-48
2020/12/27 08:00:27;;;;;;;1.92;1.17;;;;;;;4.99;99.16;97946.44;4951028;28;20051;-47
2020/12/27 08:02:55;;;;;;;0.75;0.70;;;;;;;4.99;99.34;97912.06;4952766;28;20442;-49
2020/12/27 08:05:22;;;;;;;1.58;1.15;;;;;;;5.02;99.00;97929.38;4951353;28;20039;-49
2020/12/27 08:07:53;;;;;;;1.35;0.88;;;;;;;4.96;99.75;97912.47;4954041;28;20051;-51
2020/12/27 08:10:25;;;;;;;2.90;0.90;;;;;;;5.00;99.33;97875.84;4948343;28;20389;-52
2020/12/27 08:12:56;;;;;;;1.20;1.00;;;;;;;5.06;99.45;97888.28;4953002;28;20047;-52
2020/12/27 08:15:26;;;;;;;1.75;1.15;;;;;;;5.11;98.74;97877.91;4950134;28;20235;-48
2020/12/27 08:17:58;;;;;;;3.08;1.00;;;;;;;5.07;98.69;97852.06;4948684;28;20347;-53
2020/12/27 08:20:25;;;;;;;1.92;0.90;;;;;;;5.12;98.47;97844.34;4954059;28;20051;-52
2020/12/27 08:23:07;;;;;;;1.67;1.10;;;;;;;5.15;98.20;97828.06;4953299;28;20411;-50
2020/12/27 08:25:36;;;;;;;2.72;1.10;;;;;;;5.12;98.46;97802.84;4953209;29;20342;-51
2020/12/27 08:28:05;;;;;;;1.77;0.65;;;;;;;5.19;98.16;97829.31;4952423;29;20035;-50
2020/12/27 08:30:32;;;;;;;0.88;0.70;;;;;;;5.16;97.71;97814.63;4947187;28;20051;-52
2020/12/27 08:33:09;;;;;;;0.88;0.80;;;;;;;5.15;97.84;97797.13;4951958;28;20054;-48
2020/12/27 08:35:37;;;;;;;0.80;0.80;;;;;;;5.15;97.74;97801.63;4952984;28;20047;-52
2020/12/27 08:38:13;;;;;;;1.42;0.75;;;;;;;5.10;98.11;97775.78;4953097;28;20340;-51
2020/12/27 08:40:41;;;;;;;1.55;0.85;;;;;;;5.10;98.25;97757.25;4948010;28;20478;-50
2020/12/27 08:43:16;;;;;;;0.80;0.75;;;;;;;5.06;98.02;97766.63;4951791;28;20135;-50
2020/12/27 08:45:45;;;;;;;1.10;0.77;;;;;;;5.06;98.05;97736.69;4948696;28;20039;-48
2020/12/27 08:48:25;;;;;;;1.08;0.70;;;;;;;5.10;97.85;97730.81;4952572;28;20089;-50
2020/12/27 08:50:55;;;;;;;1.48;0.60;;;;;;;5.06;97.92;97761.31;4948468;28;20054;-53
2020/12/27 08:53:22;;;;;;;0.85;0.70;;;;;;;5.06;97.88;97716.34;4954058;28;20317;-49
2020/12/27 08:55:49;;;;;;;1.52;0.90;;;;;;;5.02;98.20;97732.81;4951491;28;20050;-51
2020/12/27 08:58:21;;;;;;;1.02;0.90;;;;;;;5.06;98.43;97728.75;4953585;28;20211;-47
2020/12/27 09:00:48;;;;;;;4.25;1.10;;;;;;;5.11;98.26;97700.66;4949309;28;20443;-51
2020/12/27 09:03:17;;;;;;;1.27;0.95;;;;;;;5.10;97.88;97714.94;4952535;28;20054;-49
2020/12/27 09:05:44;;;;;;;1.50;0.93;;;;;;;5.09;98.34;97700.06;4950411;28;20090;-51
2020/12/27 09:08:15;;;;;;;1.63;1.05;;;;;;;5.15;98.51;97685.22;4953220;28;20332;-49
2020/12/27 09:10:43;;;;;;;1.80;0.98;;;;;;;5.11;98.55;97700.66;4952396;28;20047;-51
2020/12/27 09:13:11;;;;;;;1.60;0.80;;;;;;;5.13;98.15;97687.25;4951143;28;20086;-51
2020/12/27 09:15:39;;;;;;;0.60;0.60;;;;;;;5.15;98.55;97658.75;4951752;29;20424;-55
2020/12/27 09:18:07;;;;;;;2.22;1.27;;;;;;;5.16;98.54;97660.41;4953884;28;20047;-51
2020/12/27 09:20:36;;;;;;;3.03;1.50;;;;;;;5.16;98.33;97641.88;4950724;28;20051;-52
2020/12/27 09:23:11;;;;;;;1.33;1.20;;;;;;;5.16;98.81;97629.47;4951264;28;20047;-51
2020/12/27 09:25:38;;;;;;;2.88;1.10;;;;;;;5.17;98.25;97657.53;4948593;29;20063;-49
2020/12/27 09:28:12;;;;;;;5.07;1.60;;;;;;;5.14;99.21;97625.38;4954211;28;20043;-53
2020/12/27 09:30:43;;;;;;;2.85;0.82;;;;;;;5.13;98.76;97637.81;4950555;28;20383;-49
2020/12/27 09:33:11;;;;;;;1.08;0.70;;;;;;;5.22;98.46;97638.41;4953980;28;20039;-53
2020/12/27 09:35:39;;;;;;;1.23;0.90;;;;;;;5.29;98.61;97617.22;4949534;29;20311;-53
2020/12/27 09:38:22;;;;;;;1.27;0.80;;;;;;;5.26;98.37;97614.97;4952791;28;20051;-54
2020/12/27 09:41:01;;;;;;;1.63;0.80;;;;;;;5.29;98.23;97602.16;4950877;28;20215;-53
2020/12/27 09:43:28;;;;;;;1.60;0.90;;;;;;;5.27;98.67;97542.53;4954027;28;20043;-54
2020/12/27 09:45:55;;;;;;;1.13;0.93;;;;;;;5.28;98.42;97544.16;4954099;28;20051;-54
2020/12/27 09:48:30;;;;;;;0.80;0.80;;;;;;;5.31;98.57;97578.13;4957789;28;20313;-52
2020/12/27 09:50:58;;;;;;;1.70;0.70;;;;;;;5.30;98.23;97560.63;4954583;28;20035;-52
2020/12/27 09:53:27;;;;;;;0.60;0.60;;;;;;;5.31;98.37;97556.97;4955726;29;20054;-55
2020/12/27 09:55:54;;;;;;;1.25;0.90;;;;;;;5.35;98.33;97574.06;4954986;28;20046;-54
2020/12/27 09:58:21;;;;;;;1.98;0.85;;;;;;;5.34;98.07;97538.03;4956257;29;20360;-54
2020/12/27 10:00:47;;;;;;;1.00;0.90;;;;;;;5.34;98.48;97552.09;4950104;28;20163;-52
2020/12/27 10:03:15;;;;;;;1.23;1.00;;;;;;;5.41;98.26;97520.28;4953928;29;20376;-50
2020/12/27 10:05:42;;;;;;;1.35;0.75;;;;;;;5.41;98.50;97536.16;4953421;28;20039;-51
2020/12/27 10:08:10;;;;;;;0.85;0.85;;;;;;;5.47;98.23;97508.88;4954298;28;20134;-47
2020/12/27 10:10:53;;;;;;;0.75;0.75;;;;;;;5.51;98.25;97511.88;4953051;28;20059;-48
2020/12/27 10:13:20;;;;;;;1.95;1.00;;;;;;;5.52;98.18;97518.81;4954733;28;20059;-51
2020/12/27 10:15:47;;;;;;;2.15;1.10;;;;;;;5.52;98.06;97511.69;4954365;29;20053;-51
2020/12/27 10:18:14;;;;;;;0.80;0.68;;;;;;;5.52;98.63;97490.50;4954607;29;20059;-50
2020/12/27 10:20:41;;;;;;;1.90;1.10;;;;;;;5.54;98.25;97481.53;4952679;29;20050;-51
2020/12/27 10:23:08;;;;;;;3.60;1.08;;;;;;;5.56;98.31;97471.53;4953965;28;20050;-51
2020/12/27 10:25:36;;;;;;;1.45;0.90;;;;;;;5.55;98.66;97465.44;4950119;29;20452;-49
2020/12/27 10:28:03;;;;;;;1.55;0.95;;;;;;;5.65;98.05;97459.69;4951060;29;20442;-47
2020/12/27 10:30:30;;;;;;;1.75;1.05;;;;;;;5.64;98.51;97466.84;4950661;28;20427;-50
2020/12/27 10:33:01;;;;;;;2.15;1.23;;;;;;;5.65;98.47;97452.56;4954309;29;20125;-48
2020/12/27 10:35:28;;;;;;;1.55;0.90;;;;;;;5.69;98.46;97440.50;4951978;29;20054;-48
2020/12/27 10:37:56;;;;;;;1.55;1.05;;;;;;;5.66;98.41;97418.97;4951795;29;20058;-53
2020/12/27 10:40:23;;;;;;;1.95;1.58;;;;;;;5.71;98.09;97434.19;4952618;29;20048;-50
2020/12/27 10:42:50;;;;;;;2.03;1.20;;;;;;;5.67;98.20;97433.81;4953293;29;20088;-52
2020/12/27 10:45:17;;;;;;;2.13;1.10;;;;;;;5.74;97.93;97416.06;4954146;29;20063;-50
2020/12/27 10:47:44;;;;;;;1.35;0.93;;;;;;;5.72;98.12;97393.47;4953355;29;20042;-50
2020/12/27 10:50:11;;;;;;;1.13;0.77;;;;;;;5.72;97.98;97406.72;4928540;28;20051;-48
2020/12/27 10:52:38;;;;;;;1.13;1.02;;;;;;;5.69;98.49;97390.22;4951658;29;20062;-49
2020/12/27 10:55:05;;;;;;;3.45;1.40;;;;;;;5.75;97.86;97367.34;4951215;29;20047;-50
2020/12/27 10:57:31;;;;;;;2.35;1.20;;;;;;;5.75;97.99;97372.66;4954766;28;20211;-55
2020/12/27 10:59:59;;;;;;;1.90;1.33;;;;;;;5.72;97.90;97362.50;4954080;29;20055;-54
2020/12/27 11:02:26;;;;;;;1.63;0.95;;;;;;;5.71;98.02;97313.22;4953964;28;20055;-57
2020/12/27 11:04:53;;;;;;;4.57;1.30;;;;;;;5.72;98.22;97346.63;4953654;29;20054;-52
2020/12/27 11:07:30;;;;;;;1.25;1.15;;;;;;;5.76;98.52;97337.22;4951066;29;20050;-52
2020/12/27 11:09:57;;;;;;;2.70;1.10;;;;;;;5.73;98.72;97297.94;4953654;29;20071;-55
2020/12/27 11:12:24;;;;;;;1.15;0.90;;;;;;;5.82;98.08;97330.25;4952189;28;20059;-52
2020/12/27 11:14:51;;;;;;;1.08;0.90;;;;;;;5.83;98.23;97329.22;4953482;29;20061;-50
2020/12/27 11:17:19;;;;;;;2.53;1.00;;;;;;;5.75;98.67;97340.88;4954207;29;20427;-50
2020/12/27 11:19:47;;;;;;;1.13;1.02;;;;;;;5.81;98.17;97315.38;4954320;28;20063;-49
2020/12/27 11:22:14;;;;;;;1.00;0.90;;;;;;;5.79;98.14;97310.28;4952052;28;20047;-50
2020/12/27 11:24:41;;;;;;;1.35;1.10;;;;;;;5.76;98.40;97318.69;4954957;28;20344;-51
2020/12/27 11:27:08;;;;;;;1.85;1.10;;;;;;;5.78;100.00;97298.06;4953305;29;20050;-52
2020/12/27 11:29:35;;;;;;;1.33;0.93;;;;;;;5.85;100.00;97280.31;4953432;29;20440;-52
2020/12/27 11:32:03;;;;;;;2.45;1.85;;;;;;;5.77;100.00;97285.88;4950791;28;20054;-55
2020/12/27 11:34:31;;;;;;;3.20;1.13;;;;;;;5.79;100.00;97285.66;4953162;29;20069;-50
2020/12/27 11:36:57;;;;;;;1.17;0.90;;;;;;;5.76;100.00;97292.19;4952319;28;20055;-57
2020/12/27 11:39:24;;;;;;;1.45;1.00;;;;;;;5.76;100.00;97241.88;4953977;29;20082;-53
2020/12/27 11:41:54;;;;;;;2.63;0.90;;;;;;;5.78;100.00;97244.31;4949372;28;20453;-48
2020/12/27 11:44:21;;;;;;;1.98;0.80;;;;;;;5.79;100.00;97267.94;4953863;29;20051;-50
2020/12/27 11:46:47;;;;;;;1.50;1.13;;;;;;;5.80;100.00;97266.09;4953795;28;20043;-48